Time;durP1;ratioP1;P1;durP2;ratioP2;P2;SDS_P1;SDS_P2;PMS_P1;PMS_P2;Temp;Humidity;BMP_temperature;BMP_pressure;BME280_temperature;BME280_humidity;BME280_pressure;Samples;Min_cycle;Max_cycle;Signal;HPM_P1;HPM_P2
2022/08/28 00:01:47;;;;;;;5.28;3.55;;;;;;;19.78;66.30;100782.03;5054381;28;20025;-25
2022/08/28 00:04:12;;;;;;;2.63;2.25;;;;;;;19.75;66.16;100782.16;5058275;28;20484;-25
2022/08/28 00:06:37;;;;;;;3.70;2.55;;;;;;;19.70;66.65;100778.81;5056069;28;20067;-25
2022/08/28 00:09:04;;;;;;;2.05;1.95;;;;;;;19.70;66.38;100789.53;5056079;28;20106;-25
2022/08/28 00:11:29;;;;;;;5.82;3.13;;;;;;;19.70;66.41;100789.53;5054862;28;20039;-24
2022/08/28 00:13:55;;;;;;;5.80;2.40;;;;;;;19.71;66.07;100792.13;5059883;28;20029;-25
2022/08/28 00:16:20;;;;;;;4.22;2.40;;;;;;;19.66;66.40;100793.28;5057270;28;20025;-25
2022/08/28 00:18:46;;;;;;;3.80;2.60;;;;;;;19.61;66.18;100796.19;5055312;28;20495;-25
2022/08/28 00:21:11;;;;;;;4.20;2.05;;;;;;;19.60;66.24;100806.00;5055371;28;20020;-25
2022/08/28 00:23:37;;;;;;;2.38;2.08;;;;;;;19.57;66.38;100806.13;5057912;28;20395;-26
2022/08/28 00:26:02;;;;;;;6.03;2.17;;;;;;;19.54;66.45;100816.97;5055199;28;20028;-25
2022/08/28 00:28:28;;;;;;;3.55;2.58;;;;;;;19.54;66.19;100816.97;5055371;28;20031;-24
2022/08/28 00:30:57;;;;;;;2.53;1.80;;;;;;;19.52;66.06;100813.50;5058682;28;20047;-24
2022/08/28 00:33:26;;;;;;;5.72;2.42;;;;;;;19.53;66.09;100817.91;5055855;28;20017;-25
2022/08/28 00:35:53;;;;;;;3.13;2.05;;;;;;;19.48;66.16;100817.25;5058898;28;20428;-25
2022/08/28 00:38:20;;;;;;;4.22;2.38;;;;;;;19.46;66.02;100809.31;5056619;28;20492;-24
2022/08/28 00:40:48;;;;;;;3.67;2.35;;;;;;;19.46;65.83;100808.41;5058896;28;20032;-25
2022/08/28 00:43:37;;;;;;;2.70;2.03;;;;;;;19.43;65.80;100803.19;5059661;28;20043;-24
2022/08/28 00:46:05;;;;;;;6.93;2.10;;;;;;;19.38;65.49;100810.56;5057869;28;20028;-25
2022/08/28 00:48:31;;;;;;;4.68;1.85;;;;;;;19.36;65.69;100808.84;5057439;28;20113;-25
2022/08/28 00:53:42;;;;;;;4.18;2.33;;;;;;;19.32;65.76;100807.25;5060649;28;20073;-25
2022/08/28 00:56:10;;;;;;;4.10;1.80;;;;;;;19.34;65.53;100805.34;5057764;28;20513;-25
2022/08/28 00:58:35;;;;;;;4.97;2.30;;;;;;;19.31;65.69;100804.63;5058641;28;20036;-25
2022/08/28 01:01:01;;;;;;;3.15;1.67;;;;;;;19.28;65.85;100800.28;5054873;28;20029;-24
2022/08/28 01:03:26;;;;;;;3.30;2.08;;;;;;;19.26;65.59;100795.94;5053186;28;20056;-25
2022/08/28 01:05:52;;;;;;;3.55;2.10;;;;;;;19.26;65.84;100801.28;5056884;28;20497;-25
2022/08/28 01:08:17;;;;;;;2.75;1.77;;;;;;;19.23;65.50;100797.81;5051523;28;20468;-25
2022/08/28 01:10:46;;;;;;;4.15;2.28;;;;;;;19.18;65.75;100804.28;5056562;28;20024;-25
2022/08/28 01:13:11;;;;;;;7.20;2.20;;;;;;;19.15;65.87;100804.41;5054392;28;20104;-25
2022/08/28 01:15:37;;;;;;;2.20;1.90;;;;;;;19.16;65.59;100811.50;5064159;28;20107;-24
2022/08/28 01:18:06;;;;;;;4.68;2.15;;;;;;;19.16;65.59;100807.03;5064940;28;20472;-25
2022/08/28 01:20:33;;;;;;;5.68;1.88;;;;;;;19.13;65.66;100811.63;5059311;28;20036;-25
2022/08/28 01:23:23;;;;;;;2.47;1.70;;;;;;;19.12;65.72;100809.91;5057532;28;20064;-25
2022/08/28 01:25:49;;;;;;;4.00;2.00;;;;;;;19.07;65.90;100808.28;5062337;28;20040;-25
2022/08/28 01:28:14;;;;;;;5.50;1.90;;;;;;;19.04;65.76;100813.72;5055684;28;20029;-24
2022/08/28 01:30:41;;;;;;;4.10;1.90;;;;;;;19.04;65.45;100818.22;5053371;28;20039;-25
2022/08/28 01:33:07;;;;;;;4.00;2.03;;;;;;;19.03;65.52;100816.47;5057839;28;20105;-25
2022/08/28 01:35:34;;;;;;;6.28;2.28;;;;;;;18.98;65.63;100819.34;5039687;28;20060;-25
2022/08/28 01:38:00;;;;;;;2.80;1.90;;;;;;;18.95;65.85;100815.00;5056812;28;20033;-26
2022/08/28 01:40:29;;;;;;;4.65;2.17;;;;;;;18.92;65.91;100817.81;5059373;28;20488;-24
2022/08/28 01:42:55;;;;;;;5.40;2.00;;;;;;;18.95;65.47;100814.13;5057429;28;20025;-25
2022/08/28 01:45:21;;;;;;;4.70;1.83;;;;;;;18.94;65.36;100813.25;5065357;28;20032;-25
2022/08/28 01:47:47;;;;;;;3.22;1.50;;;;;;;18.94;65.42;100809.72;5064245;28;20413;-25
2022/08/28 01:50:17;;;;;;;2.10;1.80;;;;;;;18.89;65.39;100814.38;5055579;28;20025;-25
2022/08/28 01:52:43;;;;;;;3.20;1.77;;;;;;;18.88;65.52;100815.31;5050804;28;20020;-25
2022/08/28 01:55:09;;;;;;;4.20;2.00;;;;;;;18.83;65.59;100813.72;5054939;28;20027;-24
2022/08/28 01:57:41;;;;;;;4.85;1.70;;;;;;;18.82;65.58;100813.78;5059690;28;20024;-24
2022/08/28 02:00:08;;;;;;;5.80;2.10;;;;;;;18.79;65.56;100814.78;5062705;28;20024;-24
2022/08/28 02:02:34;;;;;;;4.03;1.80;;;;;;;18.76;65.46;100811.34;5066011;28;20431;-25
2022/08/28 02:04:59;;;;;;;4.50;2.22;;;;;;;18.74;65.91;100821.25;5061703;28;20029;-25
2022/08/28 02:07:24;;;;;;;3.33;1.60;;;;;;;18.74;65.38;100816.75;5058477;28;20028;-25
2022/08/28 02:09:50;;;;;;;5.45;1.95;;;;;;;18.72;65.27;100819.50;5059788;28;20040;-24
2022/08/28 02:12:16;;;;;;;4.90;2.08;;;;;;;18.69;65.61;100821.44;5062592;28;20021;-25
2022/08/28 02:14:41;;;;;;;4.65;2.00;;;;;;;18.66;65.60;100834.91;5061422;28;20025;-25
2022/08/28 02:17:07;;;;;;;6.07;2.15;;;;;;;18.66;65.31;100826.88;5058006;28;20572;-25
2022/08/28 02:19:32;;;;;;;6.63;2.45;;;;;;;18.60;65.57;100822.66;5059177;28;20536;-25
2022/08/28 02:21:57;;;;;;;4.45;2.20;;;;;;;18.58;65.85;100829.88;5058587;28;20036;-26
2022/08/28 02:24:23;;;;;;;4.03;1.83;;;;;;;18.56;65.70;100821.06;5060328;28;20592;-25
2022/08/28 02:26:48;;;;;;;3.40;2.33;;;;;;;18.53;65.29;100824.72;5061303;28;20056;-25
2022/08/28 02:29:14;;;;;;;4.60;2.10;;;;;;;18.51;65.68;100828.38;5063297;28;20029;-24
2022/08/28 02:31:39;;;;;;;8.27;2.38;;;;;;;18.48;65.69;100824.03;5061112;28;20024;-25
2022/08/28 02:34:04;;;;;;;6.20;1.80;;;;;;;18.48;65.63;100834.72;5058795;28;20079;-24
2022/08/28 02:36:30;;;;;;;5.25;2.70;;;;;;;18.46;65.56;100829.44;5066047;28;20055;-24
2022/08/28 02:38:56;;;;;;;6.88;2.55;;;;;;;18.46;65.70;100834.78;5064904;28;20036;-24
2022/08/28 02:41:22;;;;;;;5.43;2.05;;;;;;;18.43;65.66;100844.69;5065685;28;20024;-24
2022/08/28 02:43:47;;;;;;;6.15;2.40;;;;;;;18.41;65.40;100846.56;5061874;28;20082;-25
2022/08/28 02:46:12;;;;;;;6.15;2.50;;;;;;;18.41;65.71;100839.41;5066644;28;20025;-24
2022/08/28 02:48:39;;;;;;;10.45;3.08;;;;;;;18.39;65.46;100843.09;5066434;28;20107;-25
2022/08/28 02:51:08;;;;;;;3.08;2.03;;;;;;;18.35;65.74;100842.34;5062734;28;20035;-25
2022/08/28 02:53:34;;;;;;;3.28;1.90;;;;;;;18.30;65.88;100841.63;5067304;28;20033;-24
2022/08/28 02:56:01;;;;;;;3.97;2.13;;;;;;;18.30;65.53;100853.19;5064881;28;20036;-24
2022/08/28 02:58:28;;;;;;;5.43;2.90;;;;;;;18.29;65.54;100846.13;5056339;28;20025;-25
2022/08/28 03:00:55;;;;;;;5.65;2.78;;;;;;;18.24;65.90;100840.06;5063514;28;20109;-24
2022/08/28 03:03:21;;;;;;;5.03;2.90;;;;;;;18.25;65.96;100856.97;5059697;28;20020;-25
2022/08/28 03:05:46;;;;;;;4.78;2.55;;;;;;;18.21;65.78;100842.91;5061028;28;20848;-25
2022/08/28 03:08:11;;;;;;;5.20;2.70;;;;;;;18.25;65.56;100844.50;5065535;28;20086;-24
2022/08/28 03:10:37;;;;;;;11.25;3.60;;;;;;;18.21;65.45;100850.91;5062484;28;20067;-25
2022/08/28 03:13:02;;;;;;;8.00;3.33;;;;;;;18.19;65.79;100836.72;5061695;28;20395;-25
2022/08/28 03:15:28;;;;;;;6.47;2.72;;;;;;;18.14;65.70;100841.38;5062044;28;20133;-24
2022/08/28 03:17:54;;;;;;;7.13;2.60;;;;;;;18.13;65.95;100844.97;5061023;28;20135;-24
2022/08/28 03:20:20;;;;;;;5.28;2.85;;;;;;;18.14;65.62;100839.56;5057796;28;20124;-25
2022/08/28 03:25:29;;;;;;;5.50;2.35;;;;;;;18.06;66.16;100842.50;5063106;28;20212;-25
2022/08/28 03:27:55;;;;;;;7.80;2.40;;;;;;;18.06;65.54;100842.50;5064491;28;20506;-26
2022/08/28 03:30:21;;;;;;;5.10;2.80;;;;;;;18.04;65.72;100856.84;5062394;28;20471;-24
2022/08/28 03:32:47;;;;;;;8.52;2.60;;;;;;;17.98;65.92;100849.06;5063398;28;20036;-24
2022/08/28 03:35:12;;;;;;;6.85;2.70;;;;;;;17.97;66.08;100847.31;5064861;28;20101;-25
2022/08/28 03:37:37;;;;;;;6.18;2.50;;;;;;;17.95;65.93;100855.38;5058765;28;20123;-25
2022/08/28 03:40:04;;;;;;;5.68;2.90;;;;;;;17.93;65.88;100843.88;5061022;28;20024;-24
2022/08/28 03:42:30;;;;;;;5.70;3.38;;;;;;;17.93;65.61;100854.56;5057334;28;20025;-24
2022/08/28 03:44:56;;;;;;;7.65;2.83;;;;;;;17.90;65.87;100852.88;5062987;28;20021;-24
2022/08/28 03:47:21;;;;;;;6.97;2.58;;;;;;;17.88;65.78;100851.19;5063087;28;20043;-24
2022/08/28 03:49:46;;;;;;;8.10;3.20;;;;;;;17.86;65.73;100845.91;5058505;28;20381;-24
2022/08/28 03:52:12;;;;;;;4.60;2.10;;;;;;;17.86;65.80;100850.38;5058683;28;20372;-24
2022/08/28 03:54:37;;;;;;;4.45;2.42;;;;;;;17.82;65.92;100850.50;5061752;28;20517;-24
2022/08/28 03:57:02;;;;;;;6.20;2.90;;;;;;;17.80;65.97;100857.69;5061410;28;20060;-24
2022/08/28 03:59:28;;;;;;;5.18;2.75;;;;;;;17.80;65.95;100852.34;5057490;28;20027;-24
2022/08/28 04:01:53;;;;;;;6.55;2.78;;;;;;;17.80;65.99;100854.13;5059714;28;20035;-25
2022/08/28 04:04:19;;;;;;;5.00;3.08;;;;;;;17.77;66.01;100855.13;5054990;28;20028;-25
2022/08/28 04:06:44;;;;;;;8.73;3.40;;;;;;;17.77;66.14;100864.94;5059701;28;20090;-25
2022/08/28 04:09:10;;;;;;;6.20;2.95;;;;;;;17.73;66.10;100855.28;5062464;28;20038;-24
2022/08/28 04:11:42;;;;;;;5.80;2.65;;;;;;;17.74;65.85;100857.91;5061402;28;20028;-25
2022/08/28 04:14:09;;;;;;;6.43;2.45;;;;;;;17.73;66.09;100860.63;5056181;28;20547;-24
2022/08/28 04:16:34;;;;;;;9.98;2.95;;;;;;;17.72;65.98;100859.78;5044388;28;20043;-24
2022/08/28 04:18:59;;;;;;;9.48;2.80;;;;;;;17.74;65.99;100873.06;5058148;28;20028;-25
2022/08/28 04:21:25;;;;;;;6.60;3.28;;;;;;;17.68;66.01;100869.66;5057631;28;20033;-24
2022/08/28 04:23:51;;;;;;;4.38;2.80;;;;;;;17.66;66.23;100867.97;5065265;28;20025;-25
2022/08/28 04:26:19;;;;;;;6.10;2.78;;;;;;;17.67;66.10;100872.38;5060037;28;20028;-25
2022/08/28 04:28:45;;;;;;;5.97;2.70;;;;;;;17.66;66.03;100876.88;5065730;28;20419;-24
2022/08/28 04:31:11;;;;;;;5.07;2.72;;;;;;;17.64;66.05;100875.19;5062214;28;20028;-24
2022/08/28 04:33:37;;;;;;;5.30;2.70;;;;;;;17.66;65.85;100876.88;5061293;28;20070;-25
2022/08/28 04:36:08;;;;;;;4.80;2.83;;;;;;;17.63;66.12;100881.41;5064993;28;20650;-24
2022/08/28 04:38:33;;;;;;;6.15;3.28;;;;;;;17.61;65.76;100877.94;5060254;28;20036;-24
2022/08/28 04:41:03;;;;;;;11.50;4.38;;;;;;;17.61;66.04;100869.94;5044855;28;20076;-24
2022/08/28 04:43:28;;;;;;;7.13;2.90;;;;;;;17.58;65.97;100873.59;5044370;28;20025;-24
2022/08/28 04:45:53;;;;;;;8.23;2.67;;;;;;;17.57;66.25;100877.16;5058048;28;20020;-25
2022/08/28 04:48:19;;;;;;;5.93;3.03;;;;;;;17.58;65.85;100884.28;5058675;28;20029;-24
2022/08/28 04:50:46;;;;;;;7.82;3.95;;;;;;;17.59;65.89;100879.78;5060471;28;20033;-24
2022/08/28 04:53:14;;;;;;;5.97;3.00;;;;;;;17.61;65.60;100877.94;5059521;28;20020;-24
2022/08/28 04:55:44;;;;;;;7.68;3.55;;;;;;;17.52;66.40;100876.47;5062743;28;20466;-25
2022/08/28 04:58:10;;;;;;;13.98;4.03;;;;;;;17.51;66.27;100885.41;5060860;28;20163;-24
2022/08/28 05:00:40;;;;;;;6.32;2.90;;;;;;;17.50;66.20;100881.00;5061686;28;20119;-25
2022/08/28 05:03:05;;;;;;;5.50;2.92;;;;;;;17.46;66.21;100880.22;5060644;28;20021;-24
2022/08/28 05:05:31;;;;;;;5.80;2.83;;;;;;;17.47;66.31;100881.97;5061642;28;20438;-24
2022/08/28 05:07:57;;;;;;;7.35;2.80;;;;;;;17.48;66.19;100888.19;5057106;28;20025;-25
2022/08/28 05:10:22;;;;;;;6.90;3.20;;;;;;;17.46;66.00;100890.91;5055537;28;20031;-25
2022/08/28 05:12:48;;;;;;;7.97;3.10;;;;;;;17.43;66.03;100883.88;5056402;28;20047;-24
2022/08/28 05:15:13;;;;;;;8.15;3.75;;;;;;;17.41;66.55;100888.38;5061433;28;20033;-24
2022/08/28 05:17:38;;;;;;;7.43;2.72;;;;;;;17.42;66.21;100890.13;5063672;28;20032;-24
2022/08/28 05:20:04;;;;;;;5.30;3.45;;;;;;;17.40;66.48;100891.09;5065460;28;20021;-25
2022/08/28 05:22:31;;;;;;;5.05;2.83;;;;;;;17.39;66.59;100894.69;5063855;28;20433;-25
2022/08/28 05:24:56;;;;;;;5.80;3.58;;;;;;;17.38;66.51;100887.63;5065158;28;20111;-24
2022/08/28 05:27:23;;;;;;;6.88;3.13;;;;;;;17.38;66.68;100898.28;5064345;28;20111;-24
2022/08/28 05:29:49;;;;;;;6.63;3.08;;;;;;;17.36;66.48;100889.47;5067702;28;20028;-24
2022/08/28 05:32:14;;;;;;;6.97;3.05;;;;;;;17.37;66.52;100896.56;5058020;28;20230;-25
2022/08/28 05:34:39;;;;;;;7.30;3.70;;;;;;;17.39;66.19;100889.34;5063299;28;20491;-25
2022/08/28 05:37:07;;;;;;;6.18;3.40;;;;;;;17.38;66.63;100892.97;5069634;28;20515;-24
2022/08/28 05:39:33;;;;;;;6.70;3.50;;;;;;;17.38;66.42;100896.50;5065986;28;20025;-24
2022/08/28 05:41:58;;;;;;;7.82;3.58;;;;;;;17.39;66.70;100895.56;5063638;28;20025;-24
2022/08/28 05:44:23;;;;;;;6.88;3.28;;;;;;;17.39;66.67;100900.91;5065253;28;20051;-25
2022/08/28 05:46:49;;;;;;;8.80;3.35;;;;;;;17.40;66.67;100899.97;5063021;28;20106;-24
2022/08/28 05:49:17;;;;;;;6.78;3.65;;;;;;;17.42;66.42;100910.59;5060273;28;20483;-25
2022/08/28 05:51:43;;;;;;;8.60;3.03;;;;;;;17.42;66.75;100906.13;5060953;28;20028;-24
2022/08/28 05:54:08;;;;;;;6.35;3.05;;;;;;;17.40;66.42;100913.31;5062034;28;20480;-25
2022/08/28 05:56:35;;;;;;;6.13;2.67;;;;;;;17.45;66.29;100913.16;5063880;28;20024;-24
2022/08/28 05:59:01;;;;;;;9.93;3.42;;;;;;;17.46;66.38;100914.88;5064047;28;20028;-25
2022/08/28 06:01:32;;;;;;;5.78;2.75;;;;;;;17.45;66.29;100910.47;5062949;28;20038;-24
2022/08/28 06:04:10;;;;;;;9.75;3.10;;;;;;;17.46;66.60;100916.66;5056135;28;20025;-24
2022/08/28 06:06:38;;;;;;;7.80;3.40;;;;;;;17.48;66.43;100918.38;5062332;28;20518;-24
2022/08/28 06:09:10;;;;;;;7.57;3.55;;;;;;;17.48;66.31;100910.38;5062264;28;20275;-24
2022/08/28 06:11:37;;;;;;;5.40;3.30;;;;;;;17.49;66.29;100917.44;5060857;28;20090;-24
2022/08/28 06:14:05;;;;;;;6.28;2.97;;;;;;;17.50;66.22;100919.19;5060460;28;20032;-25
2022/08/28 06:16:33;;;;;;;6.85;3.53;;;;;;;17.51;66.46;100926.25;5063959;28;20033;-24
2022/08/28 06:18:59;;;;;;;7.68;3.15;;;;;;;17.51;66.37;100933.41;5063118;28;20033;-25
2022/08/28 06:21:24;;;;;;;7.10;3.35;;;;;;;17.52;66.31;100925.34;5066600;28;20077;-25
2022/08/28 06:23:50;;;;;;;10.40;4.63;;;;;;;17.53;66.25;100918.22;5060057;28;20071;-24
2022/08/28 06:26:16;;;;;;;9.80;3.63;;;;;;;17.53;66.42;100929.75;5063509;28;20534;-25
2022/08/28 06:28:41;;;;;;;6.65;3.45;;;;;;;17.54;66.29;100931.50;5055493;28;20079;-24
2022/08/28 06:31:06;;;;;;;5.65;2.85;;;;;;;17.56;66.48;100937.66;5061169;28;20064;-24
2022/08/28 06:33:31;;;;;;;6.53;3.15;;;;;;;17.56;66.30;100935.00;5055248;28;20036;-24
2022/08/28 06:35:57;;;;;;;6.85;3.50;;;;;;;17.59;66.28;100935.78;5063762;28;20034;-25
2022/08/28 06:38:24;;;;;;;6.18;3.28;;;;;;;17.61;66.11;100929.47;5058200;28;20024;-24
2022/08/28 06:40:52;;;;;;;8.00;3.80;;;;;;;17.65;66.06;100938.25;5059038;28;20122;-24
2022/08/28 06:43:19;;;;;;;7.68;3.20;;;;;;;17.67;66.26;100937.28;5057297;28;20036;-24
2022/08/28 06:45:47;;;;;;;6.68;3.30;;;;;;;17.69;66.43;100940.78;5063927;28;20499;-24
2022/08/28 06:48:18;;;;;;;5.75;3.67;;;;;;;17.72;66.20;100949.56;5059846;28;20039;-24
2022/08/28 06:50:46;;;;;;;5.15;3.08;;;;;;;17.73;66.34;100941.53;5061435;28;20375;-24
2022/08/28 06:53:13;;;;;;;6.72;2.92;;;;;;;17.75;66.23;100947.69;5061471;28;20033;-24
2022/08/28 06:55:39;;;;;;;7.00;3.45;;;;;;;17.78;66.09;100950.22;5056521;28;20101;-25
2022/08/28 06:58:06;;;;;;;11.93;3.97;;;;;;;17.80;65.99;100948.38;5064282;28;20039;-24
2022/08/28 07:00:32;;;;;;;11.30;3.78;;;;;;;17.83;66.12;100945.63;5060240;28;20032;-25
2022/08/28 07:02:58;;;;;;;6.75;3.40;;;;;;;17.86;66.13;100949.09;5048248;28;20040;-24
2022/08/28 07:05:24;;;;;;;5.80;3.22;;;;;;;17.87;66.07;100945.50;5063726;28;20085;-24
2022/08/28 07:07:49;;;;;;;9.93;3.80;;;;;;;17.90;66.14;100958.72;5055382;28;20496;-24
2022/08/28 07:10:15;;;;;;;5.80;3.80;;;;;;;17.94;66.26;100944.38;5060943;28;20025;-26
2022/08/28 07:12:40;;;;;;;8.13;4.57;;;;;;;17.99;66.37;100947.75;5056330;28;20463;-24
2022/08/28 07:15:06;;;;;;;9.25;4.35;;;;;;;18.02;66.00;100958.31;5054951;28;20526;-25
2022/08/28 07:17:31;;;;;;;7.13;3.88;;;;;;;18.08;66.10;100962.56;5059634;28;20032;-24
2022/08/28 07:19:57;;;;;;;6.43;4.45;;;;;;;18.11;66.00;100956.25;5060926;28;20066;-24
2022/08/28 07:22:23;;;;;;;6.38;3.78;;;;;;;18.16;66.07;100960.50;5059655;28;20028;-25
2022/08/28 07:24:49;;;;;;;7.00;4.38;;;;;;;18.21;65.81;100957.69;5060772;28;20021;-24
2022/08/28 07:27:14;;;;;;;7.80;4.18;;;;;;;18.26;65.86;100954.81;5059928;28;20555;-27
2022/08/28 07:29:39;;;;;;;12.93;4.03;;;;;;;18.33;65.79;100957.22;5059721;28;20518;-25
2022/08/28 07:32:05;;;;;;;8.60;4.50;;;;;;;18.37;65.50;100957.09;5053259;28;20435;-24
2022/08/28 07:34:30;;;;;;;8.65;4.30;;;;;;;18.44;65.58;100963.97;5063575;28;20388;-25
2022/08/28 07:37:02;;;;;;;11.75;4.70;;;;;;;18.48;65.56;100964.69;5056489;28;20111;-24
2022/08/28 07:39:28;;;;;;;6.68;4.10;;;;;;;18.53;65.46;100952.91;5059635;28;20020;-24
2022/08/28 07:41:53;;;;;;;9.07;4.55;;;;;;;18.60;65.42;100950.88;5059052;28;20086;-24
2022/08/28 07:47:04;;;;;;;8.13;4.85;;;;;;;18.74;65.16;100949.47;5063039;28;20040;-24
2022/08/28 07:49:30;;;;;;;7.20;4.07;;;;;;;18.81;65.06;100959.00;5060870;28;20039;-25
2022/08/28 07:51:56;;;;;;;9.20;4.93;;;;;;;18.87;65.12;100956.06;5058835;28;20032;-24
2022/08/28 07:54:22;;;;;;;7.53;4.53;;;;;;;18.94;65.10;100962.06;5054928;28;20048;-24
2022/08/28 07:56:48;;;;;;;8.07;4.38;;;;;;;18.98;65.08;100959.19;5061722;28;21682;-24
2022/08/28 07:59:14;;;;;;;8.73;4.13;;;;;;;19.03;64.60;100961.69;5060032;28;20027;-24
2022/08/28 08:01:41;;;;;;;11.77;4.38;;;;;;;19.14;64.62;100965.75;5061356;28;20589;-24
2022/08/28 08:04:11;;;;;;;6.22;3.88;;;;;;;19.22;64.55;100960.97;5065626;28;20036;-24
2022/08/28 08:06:38;;;;;;;6.47;3.88;;;;;;;19.29;64.03;100953.56;5056844;28;20369;-24
2022/08/28 08:09:05;;;;;;;6.60;3.85;;;;;;;19.38;64.25;100960.31;5060020;28;20024;-24
2022/08/28 08:11:31;;;;;;;7.88;4.28;;;;;;;19.47;63.91;100967.94;5063322;28;20439;-24
2022/08/28 08:13:56;;;;;;;4.95;3.60;;;;;;;19.55;63.88;100973.00;5061985;28;20024;-25
2022/08/28 08:16:23;;;;;;;11.10;3.85;;;;;;;19.62;63.57;100969.13;5059391;28;20086;-24
2022/08/28 08:18:51;;;;;;;9.45;3.70;;;;;;;19.69;63.21;100970.59;5054182;28;20394;-25
2022/08/28 08:21:19;;;;;;;5.10;3.78;;;;;;;19.80;62.85;100969.25;5054580;28;20028;-25
2022/08/28 08:23:45;;;;;;;9.18;4.57;;;;;;;19.83;62.43;100970.00;5058497;28;20039;-25
2022/08/28 08:26:13;;;;;;;5.28;2.92;;;;;;;19.91;62.09;100968.81;5059753;28;20107;-24
2022/08/28 08:28:39;;;;;;;12.50;4.00;;;;;;;19.98;61.98;100964.94;5058702;28;20077;-24
2022/08/28 08:31:13;;;;;;;8.75;3.38;;;;;;;20.05;62.01;100974.47;5056847;28;20052;-24
2022/08/28 08:33:41;;;;;;;9.32;4.10;;;;;;;20.14;61.71;100965.13;5060562;28;20506;-24
2022/08/28 08:36:08;;;;;;;7.38;3.75;;;;;;;20.22;61.63;100971.03;5056358;28;20199;-25
2022/08/28 08:38:33;;;;;;;6.43;4.22;;;;;;;20.28;61.19;100967.19;5057222;28;20086;-25
2022/08/28 08:40:59;;;;;;;6.22;3.17;;;;;;;20.36;60.88;100970.41;5062748;28;20510;-24
2022/08/28 08:43:27;;;;;;;7.80;3.40;;;;;;;20.45;61.09;100965.53;5059897;28;20035;-25
2022/08/28 08:45:53;;;;;;;9.43;4.00;;;;;;;20.50;60.54;100971.56;5061385;28;20437;-25
2022/08/28 08:48:34;;;;;;;9.20;3.75;;;;;;;20.48;59.70;100965.41;5057603;28;20093;-25
2022/08/28 08:51:18;;;;;;;7.95;3.97;;;;;;;20.51;59.65;100973.31;5067744;28;20028;-24
2022/08/28 08:53:59;;;;;;;10.27;3.65;;;;;;;20.63;59.30;100972.72;5061687;28;20048;-24
2022/08/28 08:56:26;;;;;;;8.52;3.95;;;;;;;20.69;58.21;100966.22;5065133;28;20549;-24
2022/08/28 08:58:52;;;;;;;9.32;3.83;;;;;;;20.82;58.90;100970.97;5066987;28;20030;-25
2022/08/28 09:02:05;;;;;;;8.57;3.85;;;;;;;20.91;58.65;100964.34;5065516;28;20021;-25
2022/08/28 09:04:38;;;;;;;6.43;3.42;;;;;;;21.04;58.73;100973.53;5028247;28;20049;-25
2022/08/28 09:07:12;;;;;;;8.48;3.38;;;;;;;21.15;58.83;100973.88;5027223;28;20047;-25
2022/08/28 09:09:41;;;;;;;13.10;4.05;;;;;;;21.24;58.82;100977.91;5052493;28;20093;-25
2022/08/28 09:12:14;;;;;;;7.33;3.23;;;;;;;21.36;58.54;100980.94;5056620;28;20029;-25
2022/08/28 09:15:04;;;;;;;6.82;3.20;;;;;;;21.50;58.12;100974.88;5066265;28;20492;-24
2022/08/28 09:17:43;;;;;;;6.70;3.35;;;;;;;21.56;57.96;100976.38;5059371;28;20831;-26
2022/08/28 09:20:12;;;;;;;10.07;3.75;;;;;;;21.62;58.03;100970.69;5060537;28;20474;-25
2022/08/28 09:22:41;;;;;;;7.28;3.28;;;;;;;21.74;57.71;100971.94;5058382;28;20037;-25
2022/08/28 09:25:09;;;;;;;8.00;3.42;;;;;;;21.84;57.26;100973.16;5063249;28;20060;-25
2022/08/28 09:27:34;;;;;;;5.97;3.00;;;;;;;21.94;57.18;100972.69;5066041;28;20028;-25
2022/08/28 09:30:05;;;;;;;5.38;3.22;;;;;;;22.05;57.29;100967.63;5064638;28;20442;-25
2022/08/28 09:32:37;;;;;;;6.35;2.72;;;;;;;22.14;56.82;100967.13;5059653;28;20488;-25
2022/08/28 09:35:12;;;;;;;4.78;2.53;;;;;;;22.24;56.66;100972.03;5062307;28;20043;-25
2022/08/28 09:37:38;;;;;;;7.00;3.47;;;;;;;22.37;56.54;100974.91;5064448;28;20557;-25
2022/08/28 09:40:13;;;;;;;8.40;3.45;;;;;;;22.42;56.41;100971.03;5064812;28;20032;-24
2022/08/28 09:45:23;;;;;;;4.88;2.72;;;;;;;22.66;55.78;100972.47;5065980;28;20093;-24
2022/08/28 09:47:49;;;;;;;7.07;3.25;;;;;;;22.72;55.64;100973.94;5057687;28;20029;-24
2022/08/28 09:50:31;;;;;;;7.45;3.10;;;;;;;22.83;55.72;100968.84;5067374;28;20039;-25
2022/08/28 09:53:11;;;;;;;7.47;3.00;;;;;;;22.94;55.34;100961.03;5058454;28;21594;-24
2022/08/28 09:55:43;;;;;;;8.57;4.20;;;;;;;23.04;55.51;100965.91;5063481;28;20024;-25
2022/08/28 09:58:08;;;;;;;7.00;2.60;;;;;;;23.13;55.07;100970.72;5060265;28;20075;-24
2022/08/28 10:00:36;;;;;;;8.98;2.92;;;;;;;23.23;54.83;100970.19;5063951;28;20028;-24
2022/08/28 10:03:08;;;;;;;3.95;3.03;;;;;;;23.31;54.51;100968.78;5058525;28;20025;-24
2022/08/28 10:05:37;;;;;;;6.13;3.10;;;;;;;23.41;54.57;100974.53;5067527;28;20024;-25
2022/08/28 10:08:12;;;;;;;6.68;3.10;;;;;;;23.51;54.22;100977.53;5061474;28;20024;-24
2022/08/28 10:10:44;;;;;;;4.90;2.60;;;;;;;23.55;53.43;100976.44;5063523;28;20472;-25
2022/08/28 10:13:28;;;;;;;10.27;3.65;;;;;;;23.66;53.77;100989.22;5056382;28;20029;-24
2022/08/28 10:16:08;;;;;;;6.82;2.90;;;;;;;23.75;53.04;100993.19;5057862;28;20031;-25
2022/08/28 10:18:49;;;;;;;10.68;2.83;;;;;;;23.83;52.60;100980.13;5062771;28;20107;-25
2022/08/28 10:21:17;;;;;;;;;;;;;;;23.88;52.64;100979.88;5063303;28;20044;-24
2022/08/28 10:24:08;;;;;;;7.10;3.67;;;;;;;23.97;52.49;100981.09;5065368;28;19921;-24
2022/08/28 10:26:55;;;;;;;6.30;2.58;;;;;;;24.03;51.79;100979.88;5065497;28;20109;-24
2022/08/28 10:29:26;;;;;;;6.63;2.42;;;;;;;24.11;52.34;100979.41;5045668;28;20027;-25
2022/08/28 10:32:14;;;;;;;5.93;2.92;;;;;;;24.19;52.09;100978.00;5061351;28;20503;-24
2022/08/28 10:35:01;;;;;;;5.22;2.55;;;;;;;24.30;51.75;100971.06;5063485;28;20401;-24
2022/08/28 10:37:57;;;;;;;5.70;3.10;;;;;;;24.41;50.82;100976.66;5065099;28;20020;-24
2022/08/28 10:40:35;;;;;;;7.03;3.25;;;;;;;24.52;50.96;100972.41;5066702;28;20029;-25
2022/08/28 10:43:10;;;;;;;4.55;2.60;;;;;;;24.60;50.98;100975.47;5062546;28;20024;-24
2022/08/28 10:45:36;;;;;;;4.38;2.90;;;;;;;24.65;50.74;100980.59;5062142;28;20036;-25
2022/08/28 10:48:24;;;;;;;5.90;2.85;;;;;;;24.72;50.35;100972.00;5059236;28;20024;-25
2022/08/28 10:50:56;;;;;;;5.85;2.92;;;;;;;24.78;50.17;100968.06;5046327;28;20029;-25
2022/08/28 10:53:35;;;;;;;5.03;2.67;;;;;;;24.87;50.08;100969.28;5074338;28;21762;-25
2022/08/28 10:56:22;;;;;;;10.93;3.30;;;;;;;24.87;49.29;100963.06;5056821;28;20029;-24
2022/08/28 10:58:51;;;;;;;6.07;2.63;;;;;;;24.88;48.99;100964.78;5057203;28;20052;-24
2022/08/28 11:01:32;;;;;;;4.68;2.63;;;;;;;24.95;48.81;100961.59;5057120;28;20021;-24
2022/08/28 11:04:00;;;;;;;5.22;2.72;;;;;;;25.04;48.84;100970.03;5059009;28;20047;-26
2022/08/28 11:06:45;;;;;;;7.57;2.83;;;;;;;25.13;48.55;100976.63;5060496;28;20028;-24
2022/08/28 11:09:28;;;;;;;6.93;2.72;;;;;;;25.20;48.34;100981.53;5059887;28;20515;-24
2022/08/28 11:12:00;;;;;;;6.05;3.17;;;;;;;25.21;47.79;100983.25;5053364;28;20035;-26
2022/08/28 11:14:35;;;;;;;6.47;2.72;;;;;;;25.29;47.76;100969.25;5060246;28;20039;-24
2022/08/28 11:17:29;;;;;;;6.28;3.00;;;;;;;25.38;47.81;100973.19;5059074;28;20028;-25
2022/08/28 11:20:13;;;;;;;7.43;3.17;;;;;;;25.47;47.45;100986.06;5059904;28;20040;-24
2022/08/28 11:22:48;;;;;;;7.38;3.42;;;;;;;25.55;46.85;100977.44;5057967;28;20028;-25
2022/08/28 11:25:23;;;;;;;5.47;3.13;;;;;;;25.61;47.72;100987.00;5062710;28;20017;-24
2022/08/28 11:28:22;;;;;;;6.15;2.70;;;;;;;25.64;46.94;100973.25;5053298;28;20524;-25
2022/08/28 11:30:56;;;;;;;5.20;3.13;;;;;;;25.73;47.01;100975.34;5057059;28;20103;-25
2022/08/28 11:33:47;;;;;;;7.80;2.90;;;;;;;25.77;46.53;100967.88;5060570;28;20025;-25
2022/08/28 11:36:18;;;;;;;10.50;3.05;;;;;;;25.88;46.84;100967.16;5039367;28;20044;-25
2022/08/28 11:38:43;;;;;;;3.80;2.42;;;;;;;25.95;46.38;100976.56;5056894;28;20025;-25
2022/08/28 11:41:16;;;;;;;8.33;3.20;;;;;;;25.98;46.37;100973.63;5056280;28;20025;-24
2022/08/28 11:43:43;;;;;;;7.53;3.20;;;;;;;26.01;46.04;100978.81;5059443;28;20666;-24